sensor_id;sensor_type;location;lat;lon;timestamp;pressure;altitude;pressure_sealevel;temperature;humidity
19596;BME280;9945;46.010;8.946;2023-01-01T00:02:03;98730.75;;;11.13;100.00
19596;BME280;9945;46.010;8.946;2023-01-01T00:04:31;98728.06;;;11.25;100.00
19596;BME280;9945;46.010;8.946;2023-01-01T00:06:58;98732.56;;;11.23;100.00
19596;BME280;9945;46.010;8.946;2023-01-01T00:09:25;98736.50;;;11.18;100.00
19596;BME280;9945;46.010;8.946;2023-01-01T00:12:11;98737.69;;;11.25;100.00
19596;BME280;9945;46.010;8.946;2023-01-01T00:14:38;98726.19;;;11.04;100.00
19596;BME280;9945;46.010;8.946;2023-01-01T00:17:07;98727.47;;;10.98;100.00
19596;BME280;9945;46.010;8.946;2023-01-01T00:19:34;98732.75;;;11.09;100.00
19596;BME280;9945;46.010;8.946;2023-01-01T00:22:01;98729.94;;;11.23;100.00
19596;BME280;9945;46.010;8.946;2023-01-01T00:24:27;98729.94;;;11.12;100.00
19596;BME280;9945;46.010;8.946;2023-01-01T00:26:54;98731.47;;;11.15;100.00
19596;BME280;9945;46.010;8.946;2023-01-01T00:29:22;98729.94;;;11.12;100.00
19596;BME280;9945;46.010;8.946;2023-01-01T00:31:49;98731.03;;;11.21;100.00
19596;BME280;9945;46.010;8.946;2023-01-01T00:34:16;98730.91;;;11.22;100.00
19596;BME280;9945;46.010;8.946;2023-01-01T00:36:43;98731.78;;;11.34;100.00
19596;BME280;9945;46.010;8.946;2023-01-01T00:39:10;98737.16;;;11.44;100.00
19596;BME280;9945;46.010;8.946;2023-01-01T00:41:36;98731.59;;;11.48;100.00
19596;BME280;9945;46.010;8.946;2023-01-01T00:44:03;98733.13;;;11.51;100.00
19596;BME280;9945;46.010;8.946;2023-01-01T00:46:31;98733.19;;;11.27;100.00
19596;BME280;9945;46.010;8.946;2023-01-01T00:48:58;98732.19;;;11.17;100.00
19596;BME280;9945;46.010;8.946;2023-01-01T00:51:25;98731.09;;;11.08;100.00
19596;BME280;9945;46.010;8.946;2023-01-01T00:53:52;98726.31;;;11.02;100.00
19596;BME280;9945;46.010;8.946;2023-01-01T00:56:19;98722.97;;;11.00;100.00
19596;BME280;9945;46.010;8.946;2023-01-01T00:58:46;98728.94;;;11.02;100.00
19596;BME280;9945;46.010;8.946;2023-01-01T01:01:13;98726.19;;;11.04;100.00
19596;BME280;9945;46.010;8.946;2023-01-01T01:03:41;98724.63;;;11.01;100.00
19596;BME280;9945;46.010;8.946;2023-01-01T01:06:10;98720.22;;;11.02;100.00
19596;BME280;9945;46.010;8.946;2023-01-01T01:08:38;98726.47;;;11.23;100.00
19596;BME280;9945;46.010;8.946;2023-01-01T01:11:06;98719.19;;;11.15;100.00
19596;BME280;9945;46.010;8.946;2023-01-01T01:13:34;98714.78;;;11.05;100.00
19596;BME280;9945;46.010;8.946;2023-01-01T01:16:07;98713.69;;;11.07;100.00
19596;BME280;9945;46.010;8.946;2023-01-01T01:18:34;98708.19;;;10.99;100.00
19596;BME280;9945;46.010;8.946;2023-01-01T01:21:03;98710.59;;;11.02;100.00
19596;BME280;9945;46.010;8.946;2023-01-01T01:23:30;98709.13;;;10.98;100.00
19596;BME280;9945;46.010;8.946;2023-01-01T01:26:06;98708.44;;;11.07;100.00
19596;BME280;9945;46.010;8.946;2023-01-01T01:28:33;98714.78;;;11.05;100.00
19596;BME280;9945;46.010;8.946;2023-01-01T01:31:00;98720.59;;;10.97;100.00
19596;BME280;9945;46.010;8.946;2023-01-01T01:33:27;98716.59;;;10.91;100.00
19596;BME280;9945;46.010;8.946;2023-01-01T01:35:54;98704.91;;;10.84;100.00
19596;BME280;9945;46.010;8.946;2023-01-01T01:38:22;98716.72;;;10.90;100.00
19596;BME280;9945;46.010;8.946;2023-01-01T01:40:49;98712.59;;;10.98;100.00
19596;BME280;9945;46.010;8.946;2023-01-01T01:43:20;98709.13;;;10.98;100.00
19596;BME280;9945;46.010;8.946;2023-01-01T01:45:49;98708.00;;;10.89;100.00
19596;BME280;9945;46.010;8.946;2023-01-01T01:48:19;98711.63;;;10.88;100.00
19596;BME280;9945;46.010;8.946;2023-01-01T01:50:47;98709.31;;;10.84;100.00
19596;BME280;9945;46.010;8.946;2023-01-01T01:53:19;98698.84;;;10.84;100.00
19596;BME280;9945;46.010;8.946;2023-01-01T01:55:52;98706.06;;;10.80;100.00
19596;BME280;9945;46.010;8.946;2023-01-01T01:58:20;98700.97;;;10.79;100.00
19596;BME280;9945;46.010;8.946;2023-01-01T02:00:48;98702.03;;;10.76;100.00
19596;BME280;9945;46.010;8.946;2023-01-01T02:03:18;98693.44;;;10.74;100.00
19596;BME280;9945;46.010;8.946;2023-01-01T02:05:48;98685.84;;;10.82;100.00
19596;BME280;9945;46.010;8.946;2023-01-01T02:08:15;98680.97;;;10.78;100.00
19596;BME280;9945;46.010;8.946;2023-01-01T02:10:42;98681.16;;;10.75;100.00
19596;BME280;9945;46.010;8.946;2023-01-01T02:13:10;98677.41;;;10.90;100.00
19596;BME280;9945;46.010;8.946;2023-01-01T02:15:41;98682.06;;;10.86;100.00
19596;BME280;9945;46.010;8.946;2023-01-01T02:18:18;98667.59;;;10.81;100.00
19596;BME280;9945;46.010;8.946;2023-01-01T02:20:49;98662.16;;;10.84;100.00
19596;BME280;9945;46.010;8.946;2023-01-01T02:23:30;98660.09;;;10.76;100.00
19596;BME280;9945;46.010;8.946;2023-01-01T02:29:21;98654.03;;;10.76;100.00
19596;BME280;9945;46.010;8.946;2023-01-01T02:31:57;98644.88;;;10.81;100.00
19596;BME280;9945;46.010;8.946;2023-01-01T02:34:28;98647.84;;;10.77;100.00
19596;BME280;9945;46.010;8.946;2023-01-01T02:36:59;98645.69;;;10.71;100.00
19596;BME280;9945;46.010;8.946;2023-01-01T02:39:31;98645.16;;;10.54;100.00
19596;BME280;9945;46.010;8.946;2023-01-01T02:41:59;98643.75;;;10.61;100.00
19596;BME280;9945;46.010;8.946;2023-01-01T02:44:31;98644.22;;;10.67;100.00
19596;BME280;9945;46.010;8.946;2023-01-01T02:47:07;98645.78;;;10.69;100.00
19596;BME280;9945;46.010;8.946;2023-01-01T02:49:36;98642.22;;;10.70;100.00
19596;BME280;9945;46.010;8.946;2023-01-01T02:52:10;98641.66;;;10.78;100.00
19596;BME280;9945;46.010;8.946;2023-01-01T02:54:47;98637.00;;;10.81;100.00
19596;BME280;9945;46.010;8.946;2023-01-01T02:57:24;98632.19;;;10.88;100.00
19596;BME280;9945;46.010;8.946;2023-01-01T03:00:00;98635.28;;;10.93;100.00
19596;BME280;9945;46.010;8.946;2023-01-01T03:03:00;98629.97;;;10.71;100.00
19596;BME280;9945;46.010;8.946;2023-01-01T03:05:36;98637.09;;;10.69;100.00
19596;BME280;9945;46.010;8.946;2023-01-01T03:08:32;98636.25;;;10.68;100.00
19596;BME280;9945;46.010;8.946;2023-01-01T03:11:08;98638.31;;;10.76;100.00
19596;BME280;9945;46.010;8.946;2023-01-01T03:13:40;98638.09;;;10.79;100.00
19596;BME280;9945;46.010;8.946;2023-01-01T03:16:15;98640.34;;;10.83;100.00
19596;BME280;9945;46.010;8.946;2023-01-01T03:18:48;98644.91;;;10.92;100.00
19596;BME280;9945;46.010;8.946;2023-01-01T03:21:37;98639.81;;;11.02;100.00
19596;BME280;9945;46.010;8.946;2023-01-01T03:24:08;98644.72;;;11.07;100.00
19596;BME280;9945;46.010;8.946;2023-01-01T03:26:39;98641.25;;;10.95;100.00
19596;BME280;9945;46.010;8.946;2023-01-01T03:29:09;98638.41;;;11.09;100.00
19596;BME280;9945;46.010;8.946;2023-01-01T03:31:41;98638.63;;;10.95;100.00
19596;BME280;9945;46.010;8.946;2023-01-01T03:34:13;98644.91;;;10.92;100.00
19596;BME280;9945;46.010;8.946;2023-01-01T03:36:44;98641.09;;;10.85;100.00
19596;BME280;9945;46.010;8.946;2023-01-01T03:39:16;98638.56;;;10.84;100.00
19596;BME280;9945;46.010;8.946;2023-01-01T03:41:46;98640.13;;;10.86;100.00
19596;BME280;9945;46.010;8.946;2023-01-01T03:44:19;98640.88;;;10.99;100.00
19596;BME280;9945;46.010;8.946;2023-01-01T03:46:49;98639.34;;;11.08;100.00
19596;BME280;9945;46.010;8.946;2023-01-01T03:49:16;98635.47;;;11.14;100.00
19596;BME280;9945;46.010;8.946;2023-01-01T03:52:00;98625.44;;;11.19;100.00
19596;BME280;9945;46.010;8.946;2023-01-01T03:54:37;98630.47;;;11.22;100.00
19596;BME280;9945;46.010;8.946;2023-01-01T03:57:13;98632.25;;;11.21;100.00
19596;BME280;9945;46.010;8.946;2023-01-01T03:59:51;98624.81;;;11.15;100.00
19596;BME280;9945;46.010;8.946;2023-01-01T04:02:25;98625.22;;;11.22;100.00
19596;BME280;9945;46.010;8.946;2023-01-01T04:04:55;98622.94;;;11.17;100.00
19596;BME280;9945;46.010;8.946;2023-01-01T04:07:23;98624.13;;;11.24;100.00
19596;BME280;9945;46.010;8.946;2023-01-01T04:09:52;98629.16;;;11.27;100.00
19596;BME280;9945;46.010;8.946;2023-01-01T04:12:20;98631.50;;;11.08;100.00
19596;BME280;9945;46.010;8.946;2023-01-01T04:14:47;98637.22;;;11.02;100.00
19596;BME280;9945;46.010;8.946;2023-01-01T04:17:14;98630.28;;;11.01;100.00
19596;BME280;9945;46.010;8.946;2023-01-01T04:19:42;98634.22;;;10.95;100.00
19596;BME280;9945;46.010;8.946;2023-01-01T04:22:09;98631.59;;;10.95;100.00
19596;BME280;9945;46.010;8.946;2023-01-01T04:24:36;98634.53;;;10.91;100.00
19596;BME280;9945;46.010;8.946;2023-01-01T04:27:03;98631.94;;;10.91;100.00
19596;BME280;9945;46.010;8.946;2023-01-01T04:29:30;98636.09;;;10.93;100.00
19596;BME280;9945;46.010;8.946;2023-01-01T04:31:58;98638.94;;;10.90;100.00
19596;BME280;9945;46.010;8.946;2023-01-01T04:34:24;98640.72;;;10.90;100.00
19596;BME280;9945;46.010;8.946;2023-01-01T04:36:53;98645.03;;;10.91;100.00
19596;BME280;9945;46.010;8.946;2023-01-01T04:39:19;98646.84;;;11.02;100.00
19596;BME280;9945;46.010;8.946;2023-01-01T04:41:46;98646.47;;;10.95;100.00
19596;BME280;9945;46.010;8.946;2023-01-01T04:44:13;98640.66;;;11.03;100.00
19596;BME280;9945;46.010;8.946;2023-01-01T04:46:40;98646.38;;;10.96;100.00
19596;BME280;9945;46.010;8.946;2023-01-01T04:49:08;98645.75;;;10.93;100.00
19596;BME280;9945;46.010;8.946;2023-01-01T04:51:34;98640.88;;;10.99;100.00
19596;BME280;9945;46.010;8.946;2023-01-01T04:54:03;98631.50;;;10.97;100.00
19596;BME280;9945;46.010;8.946;2023-01-01T04:56:30;98639.69;;;10.92;100.00
19596;BME280;9945;46.010;8.946;2023-01-01T04:58:57;98637.31;;;11.00;100.00
19596;BME280;9945;46.010;8.946;2023-01-01T05:01:25;98641.97;;;10.97;100.00
19596;BME280;9945;46.010;8.946;2023-01-01T05:03:53;98643.16;;;11.04;100.00
19596;BME280;9945;46.010;8.946;2023-01-01T05:06:21;98639.72;;;11.15;100.00
19596;BME280;9945;46.010;8.946;2023-01-01T05:08:50;98636.97;;;11.05;100.00
19596;BME280;9945;46.010;8.946;2023-01-01T05:11:21;98641.72;;;11.00;100.00
19596;BME280;9945;46.010;8.946;2023-01-01T05:13:51;98640.31;;;11.07;100.00
19596;BME280;9945;46.010;8.946;2023-01-01T05:16:19;98631.53;;;11.19;100.00
19596;BME280;9945;46.010;8.946;2023-01-01T05:18:47;98637.13;;;11.26;100.00
19596;BME280;9945;46.010;8.946;2023-01-01T05:21:16;98645.34;;;11.21;100.00
19596;BME280;9945;46.010;8.946;2023-01-01T05:23:43;98636.28;;;11.25;100.00
19596;BME280;9945;46.010;8.946;2023-01-01T05:26:12;98643.56;;;11.22;100.00
19596;BME280;9945;46.010;8.946;2023-01-01T05:28:41;98639.97;;;11.23;100.00
19596;BME280;9945;46.010;8.946;2023-01-01T05:31:10;98631.16;;;11.24;100.00
19596;BME280;9945;46.010;8.946;2023-01-01T05:33:38;98629.72;;;11.09;100.00
19596;BME280;9945;46.010;8.946;2023-01-01T05:36:06;98632.19;;;10.99;100.00
19596;BME280;9945;46.010;8.946;2023-01-01T05:38:34;98638.50;;;10.96;100.00
19596;BME280;9945;46.010;8.946;2023-01-01T05:41:04;98630.41;;;10.99;100.00
19596;BME280;9945;46.010;8.946;2023-01-01T05:43:31;98637.88;;;10.93;100.00
19596;BME280;9945;46.010;8.946;2023-01-01T05:46:00;98634.22;;;10.95;100.00
19596;BME280;9945;46.010;8.946;2023-01-01T05:48:27;98641.00;;;10.98;100.00
19596;BME280;9945;46.010;8.946;2023-01-01T05:51:01;98640.19;;;11.09;100.00
19596;BME280;9945;46.010;8.946;2023-01-01T05:53:28;98636.63;;;11.10;100.00
19596;BME280;9945;46.010;8.946;2023-01-01T05:55:55;98647.38;;;11.18;100.00
19596;BME280;9945;46.010;8.946;2023-01-01T05:58:22;98646.19;;;11.22;100.00
19596;BME280;9945;46.010;8.946;2023-01-01T06:00:49;98651.03;;;11.15;100.00
19596;BME280;9945;46.010;8.946;2023-01-01T06:03:18;98650.56;;;11.10;100.00
19596;BME280;9945;46.010;8.946;2023-01-01T06:05:45;98661.00;;;10.99;100.00
19596;BME280;9945;46.010;8.946;2023-01-01T06:08:12;98660.63;;;10.92;100.00
19596;BME280;9945;46.010;8.946;2023-01-01T06:10:38;98658.09;;;10.80;100.00
19596;BME280;9945;46.010;8.946;2023-01-01T06:13:05;98649.84;;;10.73;100.00
19596;BME280;9945;46.010;8.946;2023-01-01T06:15:32;98649.41;;;10.79;100.00
19596;BME280;9945;46.010;8.946;2023-01-01T06:17:59;98665.16;;;10.90;100.00
19596;BME280;9945;46.010;8.946;2023-01-01T06:20:27;98662.31;;;10.93;100.00
19596;BME280;9945;46.010;8.946;2023-01-01T06:22:55;98661.00;;;10.88;100.00
19596;BME280;9945;46.010;8.946;2023-01-01T06:25:22;98662.38;;;10.81;100.00
19596;BME280;9945;46.010;8.946;2023-01-01T06:27:49;98663.78;;;10.74;100.00
19596;BME280;9945;46.010;8.946;2023-01-01T06:30:16;98661.78;;;10.77;100.00
19596;BME280;9945;46.010;8.946;2023-01-01T06:32:42;98659.38;;;10.74;100.00
19596;BME280;9945;46.010;8.946;2023-01-01T06:35:09;98664.84;;;10.71;100.00
19596;BME280;9945;46.010;8.946;2023-01-01T06:37:37;98664.28;;;10.79;100.00
19596;BME280;9945;46.010;8.946;2023-01-01T06:40:05;98656.66;;;10.76;100.00
19596;BME280;9945;46.010;8.946;2023-01-01T06:42:32;98655.50;;;10.80;100.00
19596;BME280;9945;46.010;8.946;2023-01-01T06:44:59;98655.69;;;10.77;100.00
19596;BME280;9945;46.010;8.946;2023-01-01T06:47:26;98659.25;;;10.76;100.00
19596;BME280;9945;46.010;8.946;2023-01-01T06:49:53;98657.38;;;10.78;100.00
19596;BME280;9945;46.010;8.946;2023-01-01T06:52:20;98659.53;;;10.84;100.00
19596;BME280;9945;46.010;8.946;2023-01-01T06:54:48;98661.84;;;10.88;100.00
19596;BME280;9945;46.010;8.946;2023-01-01T06:57:15;98665.03;;;10.92;100.00
19596;BME280;9945;46.010;8.946;2023-01-01T06:59:42;98659.31;;;10.87;100.00
19596;BME280;9945;46.010;8.946;2023-01-01T07:02:09;98662.78;;;10.87;100.00
19596;BME280;9945;46.010;8.946;2023-01-01T07:04:37;98661.09;;;10.86;100.00
19596;BME280;9945;46.010;8.946;2023-01-01T07:07:04;98660.25;;;10.86;100.00
19596;BME280;9945;46.010;8.946;2023-01-01T07:09:31;98664.00;;;10.94;100.00
19596;BME280;9945;46.010;8.946;2023-01-01T07:11:59;98658.16;;;11.02;100.00
19596;BME280;9945;46.010;8.946;2023-01-01T07:14:26;98673.16;;;11.00;100.00
19596;BME280;9945;46.010;8.946;2023-01-01T07:16:53;98670.31;;;11.03;100.00
19596;BME280;9945;46.010;8.946;2023-01-01T07:19:19;98671.75;;;10.96;100.00
19596;BME280;9945;46.010;8.946;2023-01-01T07:21:51;98667.19;;;10.98;100.00
19596;BME280;9945;46.010;8.946;2023-01-01T07:24:18;98672.56;;;10.96;100.00
19596;BME280;9945;46.010;8.946;2023-01-01T07:26:45;98676.03;;;11.08;100.00
19596;BME280;9945;46.010;8.946;2023-01-01T07:29:15;98672.47;;;11.09;100.00
19596;BME280;9945;46.010;8.946;2023-01-01T07:31:43;98669.84;;;11.09;100.00
19596;BME280;9945;46.010;8.946;2023-01-01T07:34:13;98678.66;;;11.08;100.00
19596;BME280;9945;46.010;8.946;2023-01-01T07:36:40;98677.47;;;11.01;100.00
19596;BME280;9945;46.010;8.946;2023-01-01T07:39:07;98681.50;;;10.94;100.00
19596;BME280;9945;46.010;8.946;2023-01-01T07:41:35;98677.47;;;11.01;100.00
19596;BME280;9945;46.010;8.946;2023-01-01T07:44:02;98675.31;;;11.06;100.00
19596;BME280;9945;46.010;8.946;2023-01-01T07:46:31;98683.59;;;11.13;100.00
19596;BME280;9945;46.010;8.946;2023-01-01T07:48:59;98692.88;;;11.06;100.00
19596;BME280;9945;46.010;8.946;2023-01-01T07:51:26;98690.81;;;11.09;100.00
19596;BME280;9945;46.010;8.946;2023-01-01T07:53:53;98690.63;;;11.23;100.00
19596;BME280;9945;46.010;8.946;2023-01-01T07:56:20;98687.88;;;11.25;100.00
19596;BME280;9945;46.010;8.946;2023-01-01T07:58:46;98686.09;;;11.14;100.00
19596;BME280;9945;46.010;8.946;2023-01-01T08:01:13;98690.50;;;11.14;100.00
19596;BME280;9945;46.010;8.946;2023-01-01T08:03:41;98696.84;;;11.22;100.00
19596;BME280;9945;46.010;8.946;2023-01-01T08:06:10;98696.34;;;11.17;100.00
19596;BME280;9945;46.010;8.946;2023-01-01T08:08:37;98696.94;;;11.21;100.00
19596;BME280;9945;46.010;8.946;2023-01-01T08:11:05;98699.63;;;11.08;100.00
19596;BME280;9945;46.010;8.946;2023-01-01T08:13:32;98694.44;;;11.19;100.00
19596;BME280;9945;46.010;8.946;2023-01-01T08:15:59;98701.25;;;11.22;100.00
19596;BME280;9945;46.010;8.946;2023-01-01T08:18:25;98700.72;;;11.17;100.00
19596;BME280;9945;46.010;8.946;2023-01-01T08:20:54;98698.47;;;11.23;100.00
19596;BME280;9945;46.010;8.946;2023-01-01T08:23:21;98698.63;;;11.33;100.00
19596;BME280;9945;46.010;8.946;2023-01-01T08:25:48;98697.81;;;11.44;100.00
19596;BME280;9945;46.010;8.946;2023-01-01T08:28:15;98698.19;;;11.39;100.00
19596;BME280;9945;46.010;8.946;2023-01-01T08:30:42;98696.38;;;11.28;100.00
19596;BME280;9945;46.010;8.946;2023-01-01T08:33:09;98699.09;;;11.27;100.00
19596;BME280;9945;46.010;8.946;2023-01-01T08:35:36;98706.38;;;11.34;100.00
19596;BME280;9945;46.010;8.946;2023-01-01T08:38:08;98696.97;;;11.32;100.00
19596;BME280;9945;46.010;8.946;2023-01-01T08:40:35;98697.03;;;11.54;100.00
19596;BME280;9945;46.010;8.946;2023-01-01T08:43:02;98696.06;;;11.55;100.00
19596;BME280;9945;46.010;8.946;2023-01-01T08:45:29;98701.22;;;11.57;100.00
19596;BME280;9945;46.010;8.946;2023-01-01T08:47:56;98695.69;;;11.60;100.00
19596;BME280;9945;46.010;8.946;2023-01-01T08:50:23;98700.63;;;11.64;100.00
19596;BME280;9945;46.010;8.946;2023-01-01T08:52:49;98701.47;;;11.76;100.00
19596;BME280;9945;46.010;8.946;2023-01-01T08:55:17;98699.91;;;11.73;100.00
19596;BME280;9945;46.010;8.946;2023-01-01T08:57:44;98698.09;;;11.74;100.00
19596;BME280;9945;46.010;8.946;2023-01-01T09:00:12;98697.28;;;11.62;100.00
19596;BME280;9945;46.010;8.946;2023-01-01T09:02:39;98696.50;;;11.49;100.00
19596;BME280;9945;46.010;8.946;2023-01-01T09:05:07;98700.38;;;11.56;100.00
19596;BME280;9945;46.010;8.946;2023-01-01T09:07:34;98690.97;;;11.65;100.00
19596;BME280;9945;46.010;8.946;2023-01-01T09:10:00;98698.34;;;11.71;100.00
19596;BME280;9945;46.010;8.946;2023-01-01T09:12:29;98699.47;;;11.80;100.00
19596;BME280;9945;46.010;8.946;2023-01-01T09:14:56;98698.75;;;11.78;100.00
19596;BME280;9945;46.010;8.946;2023-01-01T09:17:23;98701.47;;;11.76;100.00
19596;BME280;9945;46.010;8.946;2023-01-01T09:19:50;98701.25;;;11.79;100.00
19596;BME280;9945;46.010;8.946;2023-01-01T09:22:16;98703.16;;;11.88;100.00
19596;BME280;9945;46.010;8.946;2023-01-01T09:24:43;98697.66;;;11.91;100.00
19596;BME280;9945;46.010;8.946;2023-01-01T09:27:10;98706.59;;;12.00;100.00
19596;BME280;9945;46.010;8.946;2023-01-01T09:29:38;98711.03;;;12.22;100.00
19596;BME280;9945;46.010;8.946;2023-01-01T09:32:05;98709.84;;;12.15;100.00
19596;BME280;9945;46.010;8.946;2023-01-01T09:34:32;98706.84;;;12.08;100.00
19596;BME280;9945;46.010;8.946;2023-01-01T09:36:59;98713.66;;;12.10;100.00
19596;BME280;9945;46.010;8.946;2023-01-01T09:39:26;98709.00;;;12.14;100.00
19596;BME280;9945;46.010;8.946;2023-01-01T09:42:04;98704.81;;;12.11;100.00
19596;BME280;9945;46.010;8.946;2023-01-01T09:44:59;98709.13;;;12.24;100.00
19596;BME280;9945;46.010;8.946;2023-01-01T09:47:31;98709.81;;;12.26;100.00
19596;BME280;9945;46.010;8.946;2023-01-01T09:50:02;98699.78;;;12.31;100.00
19596;BME280;9945;46.010;8.946;2023-01-01T09:52:36;98692.34;;;12.47;100.00
19596;BME280;9945;46.010;8.946;2023-01-01T09:55:14;98698.19;;;12.50;100.00
19596;BME280;9945;46.010;8.946;2023-01-01T09:57:42;98691.34;;;12.59;100.00
19596;BME280;9945;46.010;8.946;2023-01-01T10:00:15;98686.50;;;12.43;100.00
19596;BME280;9945;46.010;8.946;2023-01-01T10:05:36;98687.56;;;12.52;100.00
19596;BME280;9945;46.010;8.946;2023-01-01T10:08:11;98690.56;;;12.47;100.00
19596;BME280;9945;46.010;8.946;2023-01-01T10:10:49;98688.16;;;12.44;100.00
19596;BME280;9945;46.010;8.946;2023-01-01T10:13:24;98684.97;;;12.41;100.00
19596;BME280;9945;46.010;8.946;2023-01-01T10:15:57;98684.00;;;12.42;100.00
19596;BME280;9945;46.010;8.946;2023-01-01T10:18:28;98685.44;;;12.35;100.00
19596;BME280;9945;46.010;8.946;2023-01-01T10:21:02;98672.09;;;12.27;100.00
19596;BME280;9945;46.010;8.946;2023-01-01T10:23:34;98664.00;;;12.19;100.00
19596;BME280;9945;46.010;8.946;2023-01-01T10:26:10;98662.91;;;12.21;100.00
19596;BME280;9945;46.010;8.946;2023-01-01T10:28:44;98659.84;;;12.16;100.00
19596;BME280;9945;46.010;8.946;2023-01-01T10:31:19;98661.25;;;12.20;100.00
19596;BME280;9945;46.010;8.946;2023-01-01T10:33:46;98664.59;;;12.22;100.00
19596;BME280;9945;46.010;8.946;2023-01-01T10:36:15;98661.84;;;12.24;100.00
19596;BME280;9945;46.010;8.946;2023-01-01T10:38:44;98659.06;;;12.25;100.00
19596;BME280;9945;46.010;8.946;2023-01-01T10:41:11;98656.72;;;12.22;100.00
19596;BME280;9945;46.010;8.946;2023-01-01T10:43:39;98657.78;;;12.20;100.00
19596;BME280;9945;46.010;8.946;2023-01-01T10:46:05;98656.50;;;12.14;100.00
19596;BME280;9945;46.010;8.946;2023-01-01T10:48:34;98655.66;;;12.25;100.00
19596;BME280;9945;46.010;8.946;2023-01-01T10:51:02;98660.91;;;12.25;100.00
19596;BME280;9945;46.010;8.946;2023-01-01T10:53:32;98655.88;;;12.33;100.00
19596;BME280;9945;46.010;8.946;2023-01-01T10:56:04;98650.94;;;12.39;100.00
19596;BME280;9945;46.010;8.946;2023-01-01T10:58:35;98646.16;;;12.44;100.00
19596;BME280;9945;46.010;8.946;2023-01-01T11:01:04;98644.47;;;12.43;100.00
19596;BME280;9945;46.010;8.946;2023-01-01T11:03:31;98640.75;;;12.57;100.00
19596;BME280;9945;46.010;8.946;2023-01-01T11:06:02;98640.47;;;12.60;100.00
19596;BME280;9945;46.010;8.946;2023-01-01T11:08:31;98636.66;;;12.64;100.00
19596;BME280;9945;46.010;8.946;2023-01-01T11:11:01;98633.97;;;12.75;100.00
19596;BME280;9945;46.010;8.946;2023-01-01T11:13:29;98627.31;;;12.71;100.00
19596;BME280;9945;46.010;8.946;2023-01-01T11:15:57;98635.63;;;12.76;100.00
19596;BME280;9945;46.010;8.946;2023-01-01T11:18:27;98629.75;;;12.84;100.00
19596;BME280;9945;46.010;8.946;2023-01-01T11:21:02;98625.66;;;12.91;100.00
19596;BME280;9945;46.010;8.946;2023-01-01T11:23:32;98626.94;;;12.76;100.00
19596;BME280;9945;46.010;8.946;2023-01-01T11:26:03;98627.69;;;12.67;100.00
19596;BME280;9945;46.010;8.946;2023-01-01T11:28:31;98625.59;;;12.81;100.00
19596;BME280;9945;46.010;8.946;2023-01-01T11:31:02;98621.03;;;12.83;100.00
19596;BME280;9945;46.010;8.946;2023-01-01T11:33:33;98620.06;;;12.84;100.00
19596;BME280;9945;46.010;8.946;2023-01-01T11:36:03;98616.91;;;12.70;100.00
19596;BME280;9945;46.010;8.946;2023-01-01T11:38:31;98605.06;;;12.75;100.00
19596;BME280;9945;46.010;8.946;2023-01-01T11:41:02;98600.78;;;12.74;100.00
19596;BME280;9945;46.010;8.946;2023-01-01T11:43:36;98600.56;;;12.87;100.00
19596;BME280;9945;46.010;8.946;2023-01-01T11:46:07;98598.13;;;12.95;100.00
19596;BME280;9945;46.010;8.946;2023-01-01T11:48:35;98592.22;;;13.03;100.00
19596;BME280;9945;46.010;8.946;2023-01-01T11:51:05;98590.72;;;13.00;100.00
19596;BME280;9945;46.010;8.946;2023-01-01T11:53:36;98588.66;;;13.04;100.00
19596;BME280;9945;46.010;8.946;2023-01-01T11:56:10;98592.22;;;13.03;100.00
19596;BME280;9945;46.010;8.946;2023-01-01T11:58:42;98580.50;;;13.07;100.00
19596;BME280;9945;46.010;8.946;2023-01-01T12:01:18;98578.31;;;13.12;100.00
19596;BME280;9945;46.010;8.946;2023-01-01T12:03:51;98575.13;;;13.08;100.00
19596;BME280;9945;46.010;8.946;2023-01-01T12:06:23;98579.16;;;13.12;100.00
19596;BME280;9945;46.010;8.946;2023-01-01T12:08:58;98574.50;;;13.16;100.00
19596;BME280;9945;46.010;8.946;2023-01-01T12:11:34;98568.00;;;13.20;100.00
19596;BME280;9945;46.010;8.946;2023-01-01T12:14:09;98571.34;;;13.01;100.00
19596;BME280;9945;46.010;8.946;2023-01-01T12:16:46;98562.03;;;12.97;100.00
19596;BME280;9945;46.010;8.946;2023-01-01T12:19:20;98556.16;;;12.84;100.00
19596;BME280;9945;46.010;8.946;2023-01-01T12:21:55;98561.94;;;12.99;100.00
19596;BME280;9945;46.010;8.946;2023-01-01T12:24:25;98565.63;;;12.96;100.00
19596;BME280;9945;46.010;8.946;2023-01-01T12:27:11;98557.63;;;12.98;100.00
19596;BME280;9945;46.010;8.946;2023-01-01T12:29:54;98556.84;;;13.07;100.00
19596;BME280;9945;46.010;8.946;2023-01-01T12:32:28;98556.59;;;13.10;100.00
19596;BME280;9945;46.010;8.946;2023-01-01T12:35:09;98562.19;;;13.16;100.00
19596;BME280;9945;46.010;8.946;2023-01-01T12:37:47;98552.22;;;13.20;100.00
19596;BME280;9945;46.010;8.946;2023-01-01T12:40:38;98549.72;;;13.18;100.00
19596;BME280;9945;46.010;8.946;2023-01-01T12:43:09;98549.38;;;13.12;100.00
19596;BME280;9945;46.010;8.946;2023-01-01T12:45:57;98545.00;;;12.92;100.00
19596;BME280;9945;46.010;8.946;2023-01-01T12:48:41;98534.34;;;12.93;100.00
19596;BME280;9945;46.010;8.946;2023-01-01T12:51:23;98532.34;;;13.06;100.00
19596;BME280;9945;46.010;8.946;2023-01-01T12:56:45;98530.28;;;13.31;100.00
19596;BME280;9945;46.010;8.946;2023-01-01T12:59:19;98521.50;;;13.20;100.00
19596;BME280;9945;46.010;8.946;2023-01-01T13:01:50;98528.34;;;13.12;100.00
19596;BME280;9945;46.010;8.946;2023-01-01T13:04:21;98516.53;;;13.27;100.00
19596;BME280;9945;46.010;8.946;2023-01-01T13:06:50;98513.13;;;13.36;100.00
19596;BME280;9945;46.010;8.946;2023-01-01T13:09:21;98501.63;;;13.37;100.00
19596;BME280;9945;46.010;8.946;2023-01-01T13:11:54;98497.50;;;13.44;100.00
19596;BME280;9945;46.010;8.946;2023-01-01T13:14:22;98500.88;;;13.56;100.00
19596;BME280;9945;46.010;8.946;2023-01-01T13:16:51;98503.09;;;13.60;100.00
19596;BME280;9945;46.010;8.946;2023-01-01T13:19:30;98501.72;;;13.66;100.00
19596;BME280;9945;46.010;8.946;2023-01-01T13:21:57;98490.88;;;13.50;100.00
19596;BME280;9945;46.010;8.946;2023-01-01T13:24:26;98498.06;;;13.48;100.00